sensor_id;sensor_type;location;lat;lon;timestamp;P1;durP1;ratioP1;P2;durP2;ratioP2
49826;SDS011;35715;51.570;6.036;2024-01-10T00:01:58;10.48;;;3.53;;
49826;SDS011;35715;51.570;6.036;2024-01-10T00:04:23;3.15;;;2.40;;
49826;SDS011;35715;51.570;6.036;2024-01-10T00:06:48;6.93;;;3.25;;
49826;SDS011;35715;51.570;6.036;2024-01-10T00:09:14;6.07;;;3.22;;
49826;SDS011;35715;51.570;6.036;2024-01-10T00:11:39;6.82;;;3.45;;
49826;SDS011;35715;51.570;6.036;2024-01-10T00:14:07;7.63;;;3.38;;
49826;SDS011;35715;51.570;6.036;2024-01-10T00:16:34;7.45;;;4.00;;
49826;SDS011;35715;51.570;6.036;2024-01-10T00:18:59;5.55;;;3.47;;
49826;SDS011;35715;51.570;6.036;2024-01-10T00:21:25;5.15;;;3.10;;
49826;SDS011;35715;51.570;6.036;2024-01-10T00:23:50;7.85;;;3.88;;
49826;SDS011;35715;51.570;6.036;2024-01-10T00:26:16;6.50;;;3.50;;
49826;SDS011;35715;51.570;6.036;2024-01-10T00:28:42;4.50;;;3.05;;
49826;SDS011;35715;51.570;6.036;2024-01-10T00:31:11;5.25;;;3.33;;
49826;SDS011;35715;51.570;6.036;2024-01-10T00:33:36;10.80;;;4.68;;
49826;SDS011;35715;51.570;6.036;2024-01-10T00:36:01;6.97;;;3.33;;
49826;SDS011;35715;51.570;6.036;2024-01-10T00:38:27;7.68;;;3.65;;
49826;SDS011;35715;51.570;6.036;2024-01-10T00:40:52;5.72;;;3.10;;
49826;SDS011;35715;51.570;6.036;2024-01-10T00:43:18;7.80;;;3.80;;
49826;SDS011;35715;51.570;6.036;2024-01-10T00:45:43;5.03;;;3.63;;
49826;SDS011;35715;51.570;6.036;2024-01-10T00:48:31;5.18;;;2.83;;
49826;SDS011;35715;51.570;6.036;2024-01-10T00:50:57;4.32;;;3.10;;
49826;SDS011;35715;51.570;6.036;2024-01-10T00:53:23;8.70;;;4.55;;
49826;SDS011;35715;51.570;6.036;2024-01-10T00:55:48;8.70;;;3.90;;
49826;SDS011;35715;51.570;6.036;2024-01-10T00:58:14;6.63;;;3.75;;
49826;SDS011;35715;51.570;6.036;2024-01-10T01:00:39;5.18;;;2.67;;
49826;SDS011;35715;51.570;6.036;2024-01-10T01:03:05;5.40;;;3.65;;
49826;SDS011;35715;51.570;6.036;2024-01-10T01:05:31;4.50;;;3.53;;
49826;SDS011;35715;51.570;6.036;2024-01-10T01:07:56;6.20;;;3.78;;
49826;SDS011;35715;51.570;6.036;2024-01-10T01:10:25;7.32;;;3.67;;
49826;SDS011;35715;51.570;6.036;2024-01-10T01:12:50;7.57;;;3.92;;
49826;SDS011;35715;51.570;6.036;2024-01-10T01:15:15;5.72;;;3.10;;
49826;SDS011;35715;51.570;6.036;2024-01-10T01:17:43;5.72;;;4.43;;
49826;SDS011;35715;51.570;6.036;2024-01-10T01:20:09;5.07;;;3.33;;
49826;SDS011;35715;51.570;6.036;2024-01-10T01:22:35;7.63;;;4.47;;
49826;SDS011;35715;51.570;6.036;2024-01-10T01:25:00;9.10;;;3.45;;
49826;SDS011;35715;51.570;6.036;2024-01-10T01:27:25;7.25;;;3.50;;
49826;SDS011;35715;51.570;6.036;2024-01-10T01:29:51;7.13;;;4.10;;
49826;SDS011;35715;51.570;6.036;2024-01-10T01:32:16;5.97;;;4.40;;
49826;SDS011;35715;51.570;6.036;2024-01-10T01:34:43;4.43;;;3.25;;
49826;SDS011;35715;51.570;6.036;2024-01-10T01:37:09;5.30;;;3.50;;
49826;SDS011;35715;51.570;6.036;2024-01-10T01:39:34;5.78;;;3.28;;
49826;SDS011;35715;51.570;6.036;2024-01-10T01:41:59;7.95;;;4.78;;
49826;SDS011;35715;51.570;6.036;2024-01-10T01:44:25;3.97;;;3.00;;
49826;SDS011;35715;51.570;6.036;2024-01-10T01:46:50;6.63;;;4.45;;
49826;SDS011;35715;51.570;6.036;2024-01-10T01:49:15;6.13;;;4.75;;
49826;SDS011;35715;51.570;6.036;2024-01-10T01:51:41;9.68;;;4.28;;
49826;SDS011;35715;51.570;6.036;2024-01-10T01:54:07;5.75;;;3.38;;
49826;SDS011;35715;51.570;6.036;2024-01-10T01:56:34;7.80;;;4.57;;
49826;SDS011;35715;51.570;6.036;2024-01-10T01:59:01;6.03;;;3.80;;
49826;SDS011;35715;51.570;6.036;2024-01-10T02:01:29;6.43;;;3.65;;
49826;SDS011;35715;51.570;6.036;2024-01-10T02:03:55;6.65;;;4.03;;
49826;SDS011;35715;51.570;6.036;2024-01-10T02:06:21;5.22;;;3.33;;
49826;SDS011;35715;51.570;6.036;2024-01-10T02:08:46;6.60;;;4.20;;
49826;SDS011;35715;51.570;6.036;2024-01-10T02:11:12;4.80;;;3.25;;
49826;SDS011;35715;51.570;6.036;2024-01-10T02:13:37;4.15;;;3.25;;
49826;SDS011;35715;51.570;6.036;2024-01-10T02:16:03;5.53;;;3.85;;
49826;SDS011;35715;51.570;6.036;2024-01-10T02:18:30;6.57;;;3.97;;
49826;SDS011;35715;51.570;6.036;2024-01-10T02:20:55;6.15;;;3.30;;
49826;SDS011;35715;51.570;6.036;2024-01-10T02:23:20;5.22;;;4.50;;
49826;SDS011;35715;51.570;6.036;2024-01-10T02:25:46;4.45;;;2.90;;
49826;SDS011;35715;51.570;6.036;2024-01-10T02:28:11;4.82;;;3.65;;
49826;SDS011;35715;51.570;6.036;2024-01-10T02:30:37;6.40;;;3.90;;
49826;SDS011;35715;51.570;6.036;2024-01-10T02:33:03;7.90;;;3.97;;
49826;SDS011;35715;51.570;6.036;2024-01-10T02:35:28;5.70;;;3.60;;
49826;SDS011;35715;51.570;6.036;2024-01-10T02:37:58;6.80;;;3.47;;
49826;SDS011;35715;51.570;6.036;2024-01-10T02:40:23;8.50;;;3.75;;
49826;SDS011;35715;51.570;6.036;2024-01-10T02:42:49;7.70;;;4.35;;
49826;SDS011;35715;51.570;6.036;2024-01-10T02:45:16;5.80;;;3.85;;
49826;SDS011;35715;51.570;6.036;2024-01-10T02:47:41;7.28;;;3.25;;
49826;SDS011;35715;51.570;6.036;2024-01-10T02:50:07;7.13;;;4.43;;
49826;SDS011;35715;51.570;6.036;2024-01-10T02:52:32;7.45;;;3.85;;
49826;SDS011;35715;51.570;6.036;2024-01-10T02:54:58;14.27;;;4.55;;
49826;SDS011;35715;51.570;6.036;2024-01-10T02:57:23;7.82;;;3.33;;
49826;SDS011;35715;51.570;6.036;2024-01-10T02:59:48;7.28;;;4.05;;
49826;SDS011;35715;51.570;6.036;2024-01-10T03:02:14;5.78;;;3.88;;
49826;SDS011;35715;51.570;6.036;2024-01-10T03:04:43;7.15;;;4.50;;
49826;SDS011;35715;51.570;6.036;2024-01-10T03:07:09;6.78;;;4.88;;
49826;SDS011;35715;51.570;6.036;2024-01-10T03:09:35;7.72;;;4.70;;
49826;SDS011;35715;51.570;6.036;2024-01-10T03:12:00;6.70;;;3.63;;
49826;SDS011;35715;51.570;6.036;2024-01-10T03:14:25;5.90;;;3.72;;
49826;SDS011;35715;51.570;6.036;2024-01-10T03:16:51;7.22;;;4.97;;
49826;SDS011;35715;51.570;6.036;2024-01-10T03:19:16;7.78;;;4.60;;
49826;SDS011;35715;51.570;6.036;2024-01-10T03:21:41;8.65;;;4.20;;
49826;SDS011;35715;51.570;6.036;2024-01-10T03:24:07;8.32;;;4.45;;
49826;SDS011;35715;51.570;6.036;2024-01-10T03:26:33;7.20;;;4.70;;
49826;SDS011;35715;51.570;6.036;2024-01-10T03:28:59;9.02;;;3.70;;
49826;SDS011;35715;51.570;6.036;2024-01-10T03:31:26;6.15;;;3.67;;
49826;SDS011;35715;51.570;6.036;2024-01-10T03:33:52;6.22;;;3.88;;
49826;SDS011;35715;51.570;6.036;2024-01-10T03:36:18;6.43;;;4.43;;
49826;SDS011;35715;51.570;6.036;2024-01-10T03:38:46;5.82;;;4.10;;
49826;SDS011;35715;51.570;6.036;2024-01-10T03:41:14;8.60;;;3.85;;
49826;SDS011;35715;51.570;6.036;2024-01-10T03:43:41;7.17;;;3.77;;
49826;SDS011;35715;51.570;6.036;2024-01-10T03:46:11;8.30;;;4.78;;
49826;SDS011;35715;51.570;6.036;2024-01-10T03:48:37;9.18;;;4.20;;
49826;SDS011;35715;51.570;6.036;2024-01-10T03:51:14;6.88;;;4.40;;
49826;SDS011;35715;51.570;6.036;2024-01-10T03:53:41;7.53;;;5.78;;
49826;SDS011;35715;51.570;6.036;2024-01-10T03:56:06;6.85;;;4.18;;
49826;SDS011;35715;51.570;6.036;2024-01-10T03:58:32;8.32;;;4.03;;
49826;SDS011;35715;51.570;6.036;2024-01-10T04:01:03;6.30;;;4.05;;
49826;SDS011;35715;51.570;6.036;2024-01-10T04:03:32;7.22;;;3.30;;
49826;SDS011;35715;51.570;6.036;2024-01-10T04:05:58;7.35;;;5.13;;
49826;SDS011;35715;51.570;6.036;2024-01-10T04:08:32;5.32;;;3.50;;
49826;SDS011;35715;51.570;6.036;2024-01-10T04:10:57;8.57;;;4.57;;
49826;SDS011;35715;51.570;6.036;2024-01-10T04:13:23;5.72;;;4.38;;
49826;SDS011;35715;51.570;6.036;2024-01-10T04:15:48;7.15;;;3.72;;
49826;SDS011;35715;51.570;6.036;2024-01-10T04:18:14;4.85;;;3.38;;
49826;SDS011;35715;51.570;6.036;2024-01-10T04:20:39;6.13;;;3.55;;
49826;SDS011;35715;51.570;6.036;2024-01-10T04:23:05;5.57;;;3.95;;
49826;SDS011;35715;51.570;6.036;2024-01-10T04:25:30;6.53;;;4.10;;
49826;SDS011;35715;51.570;6.036;2024-01-10T04:27:55;8.30;;;6.18;;
49826;SDS011;35715;51.570;6.036;2024-01-10T04:30:22;7.53;;;4.53;;
49826;SDS011;35715;51.570;6.036;2024-01-10T04:32:50;4.60;;;3.00;;
49826;SDS011;35715;51.570;6.036;2024-01-10T04:35:15;6.95;;;3.85;;
49826;SDS011;35715;51.570;6.036;2024-01-10T04:37:40;10.40;;;4.50;;
49826;SDS011;35715;51.570;6.036;2024-01-10T04:40:08;5.00;;;4.25;;
49826;SDS011;35715;51.570;6.036;2024-01-10T04:42:34;8.95;;;4.03;;
49826;SDS011;35715;51.570;6.036;2024-01-10T04:44:59;6.82;;;4.00;;
49826;SDS011;35715;51.570;6.036;2024-01-10T04:47:28;5.88;;;3.67;;
49826;SDS011;35715;51.570;6.036;2024-01-10T04:49:53;7.95;;;4.10;;
49826;SDS011;35715;51.570;6.036;2024-01-10T04:52:19;11.32;;;5.15;;
49826;SDS011;35715;51.570;6.036;2024-01-10T04:54:44;7.32;;;4.78;;
49826;SDS011;35715;51.570;6.036;2024-01-10T04:57:09;5.72;;;3.63;;
49826;SDS011;35715;51.570;6.036;2024-01-10T04:59:37;8.15;;;5.03;;
49826;SDS011;35715;51.570;6.036;2024-01-10T05:02:03;4.93;;;3.42;;
49826;SDS011;35715;51.570;6.036;2024-01-10T05:04:28;8.05;;;4.07;;
49826;SDS011;35715;51.570;6.036;2024-01-10T05:06:53;6.80;;;4.47;;
49826;SDS011;35715;51.570;6.036;2024-01-10T05:09:19;5.97;;;4.07;;
49826;SDS011;35715;51.570;6.036;2024-01-10T05:11:44;7.65;;;4.30;;
49826;SDS011;35715;51.570;6.036;2024-01-10T05:14:15;5.10;;;3.53;;
49826;SDS011;35715;51.570;6.036;2024-01-10T05:16:41;6.07;;;3.63;;
49826;SDS011;35715;51.570;6.036;2024-01-10T05:19:06;8.88;;;4.47;;
49826;SDS011;35715;51.570;6.036;2024-01-10T05:21:32;6.50;;;3.55;;
49826;SDS011;35715;51.570;6.036;2024-01-10T05:23:57;7.03;;;4.32;;
49826;SDS011;35715;51.570;6.036;2024-01-10T05:26:23;5.28;;;3.45;;
49826;SDS011;35715;51.570;6.036;2024-01-10T05:28:48;6.50;;;4.20;;
49826;SDS011;35715;51.570;6.036;2024-01-10T05:31:13;8.43;;;5.60;;
49826;SDS011;35715;51.570;6.036;2024-01-10T05:33:42;6.38;;;4.22;;
49826;SDS011;35715;51.570;6.036;2024-01-10T05:36:08;5.43;;;3.63;;
49826;SDS011;35715;51.570;6.036;2024-01-10T05:38:36;6.60;;;4.25;;
49826;SDS011;35715;51.570;6.036;2024-01-10T05:41:02;9.55;;;4.68;;
49826;SDS011;35715;51.570;6.036;2024-01-10T05:43:27;7.80;;;4.47;;
49826;SDS011;35715;51.570;6.036;2024-01-10T05:45:52;7.45;;;4.45;;
49826;SDS011;35715;51.570;6.036;2024-01-10T05:48:18;8.43;;;3.78;;
49826;SDS011;35715;51.570;6.036;2024-01-10T05:50:43;7.93;;;3.95;;
49826;SDS011;35715;51.570;6.036;2024-01-10T05:53:09;6.75;;;4.15;;
49826;SDS011;35715;51.570;6.036;2024-01-10T05:55:35;7.15;;;4.20;;
49826;SDS011;35715;51.570;6.036;2024-01-10T05:58:01;7.80;;;3.72;;
49826;SDS011;35715;51.570;6.036;2024-01-10T06:00:27;11.60;;;4.45;;
49826;SDS011;35715;51.570;6.036;2024-01-10T06:02:53;8.43;;;5.03;;
49826;SDS011;35715;51.570;6.036;2024-01-10T06:05:18;7.38;;;3.97;;
49826;SDS011;35715;51.570;6.036;2024-01-10T06:07:44;9.52;;;4.88;;
49826;SDS011;35715;51.570;6.036;2024-01-10T06:10:10;8.38;;;4.35;;
49826;SDS011;35715;51.570;6.036;2024-01-10T06:12:35;10.50;;;5.03;;
49826;SDS011;35715;51.570;6.036;2024-01-10T06:15:04;6.55;;;4.82;;
49826;SDS011;35715;51.570;6.036;2024-01-10T06:17:30;11.68;;;4.57;;
49826;SDS011;35715;51.570;6.036;2024-01-10T06:20:01;8.70;;;4.97;;
49826;SDS011;35715;51.570;6.036;2024-01-10T06:22:34;6.03;;;4.47;;
49826;SDS011;35715;51.570;6.036;2024-01-10T06:25:00;6.75;;;4.32;;
49826;SDS011;35715;51.570;6.036;2024-01-10T06:27:25;8.90;;;5.70;;
49826;SDS011;35715;51.570;6.036;2024-01-10T06:29:50;7.90;;;5.55;;
49826;SDS011;35715;51.570;6.036;2024-01-10T06:32:16;9.25;;;5.22;;
49826;SDS011;35715;51.570;6.036;2024-01-10T06:34:41;8.65;;;4.35;;
49826;SDS011;35715;51.570;6.036;2024-01-10T06:37:06;8.45;;;5.82;;
49826;SDS011;35715;51.570;6.036;2024-01-10T06:39:32;9.90;;;5.35;;
49826;SDS011;35715;51.570;6.036;2024-01-10T06:41:58;8.02;;;4.97;;
49826;SDS011;35715;51.570;6.036;2024-01-10T06:44:24;9.75;;;5.68;;
49826;SDS011;35715;51.570;6.036;2024-01-10T06:46:49;7.00;;;4.68;;
49826;SDS011;35715;51.570;6.036;2024-01-10T06:49:14;6.82;;;3.92;;
49826;SDS011;35715;51.570;6.036;2024-01-10T06:51:40;10.80;;;4.25;;
49826;SDS011;35715;51.570;6.036;2024-01-10T06:54:05;11.07;;;5.85;;
49826;SDS011;35715;51.570;6.036;2024-01-10T06:56:31;7.15;;;3.95;;
49826;SDS011;35715;51.570;6.036;2024-01-10T06:58:57;7.97;;;4.10;;
49826;SDS011;35715;51.570;6.036;2024-01-10T07:01:23;9.27;;;4.68;;
49826;SDS011;35715;51.570;6.036;2024-01-10T07:03:49;11.27;;;6.63;;
49826;SDS011;35715;51.570;6.036;2024-01-10T07:06:15;5.95;;;4.45;;
49826;SDS011;35715;51.570;6.036;2024-01-10T07:08:41;7.70;;;4.90;;
49826;SDS011;35715;51.570;6.036;2024-01-10T07:11:07;9.20;;;4.82;;
49826;SDS011;35715;51.570;6.036;2024-01-10T07:13:33;9.13;;;5.90;;
49826;SDS011;35715;51.570;6.036;2024-01-10T07:15:58;7.68;;;5.05;;
49826;SDS011;35715;51.570;6.036;2024-01-10T07:18:26;14.00;;;4.97;;
49826;SDS011;35715;51.570;6.036;2024-01-10T07:20:53;10.88;;;5.35;;
49826;SDS011;35715;51.570;6.036;2024-01-10T07:23:18;11.10;;;5.75;;
49826;SDS011;35715;51.570;6.036;2024-01-10T07:25:43;8.48;;;4.47;;
49826;SDS011;35715;51.570;6.036;2024-01-10T07:28:09;7.95;;;4.22;;
49826;SDS011;35715;51.570;6.036;2024-01-10T07:30:34;12.65;;;5.53;;
49826;SDS011;35715;51.570;6.036;2024-01-10T07:33:00;10.07;;;5.68;;
49826;SDS011;35715;51.570;6.036;2024-01-10T07:35:26;6.85;;;4.25;;
49826;SDS011;35715;51.570;6.036;2024-01-10T07:37:52;7.85;;;5.57;;
49826;SDS011;35715;51.570;6.036;2024-01-10T07:40:17;9.98;;;6.45;;
49826;SDS011;35715;51.570;6.036;2024-01-10T07:42:43;10.20;;;6.13;;
49826;SDS011;35715;51.570;6.036;2024-01-10T07:45:09;8.38;;;4.32;;
49826;SDS011;35715;51.570;6.036;2024-01-10T07:47:34;8.88;;;6.35;;
49826;SDS011;35715;51.570;6.036;2024-01-10T07:50:05;9.80;;;4.93;;
49826;SDS011;35715;51.570;6.036;2024-01-10T07:52:35;8.75;;;5.82;;
49826;SDS011;35715;51.570;6.036;2024-01-10T07:55:01;9.35;;;5.38;;
49826;SDS011;35715;51.570;6.036;2024-01-10T07:57:30;12.45;;;7.60;;
49826;SDS011;35715;51.570;6.036;2024-01-10T07:59:56;9.65;;;5.13;;
49826;SDS011;35715;51.570;6.036;2024-01-10T08:02:21;8.93;;;6.80;;
49826;SDS011;35715;51.570;6.036;2024-01-10T08:04:47;9.05;;;4.15;;
49826;SDS011;35715;51.570;6.036;2024-01-10T08:07:12;11.77;;;7.18;;
49826;SDS011;35715;51.570;6.036;2024-01-10T08:09:38;9.50;;;5.32;;
49826;SDS011;35715;51.570;6.036;2024-01-10T08:12:03;12.55;;;6.53;;
49826;SDS011;35715;51.570;6.036;2024-01-10T08:14:29;9.75;;;5.55;;
49826;SDS011;35715;51.570;6.036;2024-01-10T08:16:54;8.75;;;5.05;;
49826;SDS011;35715;51.570;6.036;2024-01-10T08:19:23;10.48;;;6.45;;
49826;SDS011;35715;51.570;6.036;2024-01-10T08:21:51;13.68;;;6.80;;
49826;SDS011;35715;51.570;6.036;2024-01-10T08:24:16;8.38;;;5.65;;
49826;SDS011;35715;51.570;6.036;2024-01-10T08:26:42;11.85;;;5.70;;
49826;SDS011;35715;51.570;6.036;2024-01-10T08:29:07;11.65;;;7.10;;
49826;SDS011;35715;51.570;6.036;2024-01-10T08:31:33;14.18;;;7.28;;
49826;SDS011;35715;51.570;6.036;2024-01-10T08:33:58;9.85;;;5.45;;
49826;SDS011;35715;51.570;6.036;2024-01-10T08:36:23;10.35;;;5.38;;
49826;SDS011;35715;51.570;6.036;2024-01-10T08:38:49;10.75;;;6.00;;
49826;SDS011;35715;51.570;6.036;2024-01-10T08:41:15;9.98;;;5.65;;
49826;SDS011;35715;51.570;6.036;2024-01-10T08:43:41;14.15;;;6.78;;
49826;SDS011;35715;51.570;6.036;2024-01-10T08:46:07;12.23;;;7.10;;
49826;SDS011;35715;51.570;6.036;2024-01-10T08:48:33;10.60;;;5.50;;
49826;SDS011;35715;51.570;6.036;2024-01-10T08:50:58;13.32;;;5.53;;
49826;SDS011;35715;51.570;6.036;2024-01-10T08:53:24;13.75;;;6.40;;
49826;SDS011;35715;51.570;6.036;2024-01-10T08:55:49;10.70;;;6.65;;
49826;SDS011;35715;51.570;6.036;2024-01-10T08:58:15;11.80;;;5.88;;
49826;SDS011;35715;51.570;6.036;2024-01-10T09:00:40;14.07;;;5.85;;
49826;SDS011;35715;51.570;6.036;2024-01-10T09:03:05;9.95;;;6.22;;
49826;SDS011;35715;51.570;6.036;2024-01-10T09:05:34;10.77;;;5.85;;
49826;SDS011;35715;51.570;6.036;2024-01-10T09:07:59;9.32;;;5.60;;
49826;SDS011;35715;51.570;6.036;2024-01-10T09:10:25;11.73;;;6.82;;
49826;SDS011;35715;51.570;6.036;2024-01-10T09:12:53;12.15;;;7.35;;
49826;SDS011;35715;51.570;6.036;2024-01-10T09:15:18;13.32;;;7.00;;
49826;SDS011;35715;51.570;6.036;2024-01-10T09:17:45;11.20;;;7.32;;
49826;SDS011;35715;51.570;6.036;2024-01-10T09:20:11;13.95;;;7.30;;
49826;SDS011;35715;51.570;6.036;2024-01-10T09:22:38;12.02;;;6.35;;
49826;SDS011;35715;51.570;6.036;2024-01-10T09:25:06;14.00;;;6.90;;
49826;SDS011;35715;51.570;6.036;2024-01-10T09:27:32;12.38;;;6.72;;
49826;SDS011;35715;51.570;6.036;2024-01-10T09:30:01;11.57;;;7.38;;
49826;SDS011;35715;51.570;6.036;2024-01-10T09:32:28;11.70;;;7.30;;
49826;SDS011;35715;51.570;6.036;2024-01-10T09:34:54;13.80;;;7.15;;
49826;SDS011;35715;51.570;6.036;2024-01-10T09:37:19;18.67;;;8.20;;
49826;SDS011;35715;51.570;6.036;2024-01-10T09:39:45;14.10;;;8.13;;
49826;SDS011;35715;51.570;6.036;2024-01-10T09:42:10;14.98;;;7.07;;
49826;SDS011;35715;51.570;6.036;2024-01-10T09:44:35;13.13;;;7.82;;
49826;SDS011;35715;51.570;6.036;2024-01-10T09:47:01;12.77;;;6.88;;
49826;SDS011;35715;51.570;6.036;2024-01-10T09:49:27;15.20;;;8.85;;
49826;SDS011;35715;51.570;6.036;2024-01-10T09:51:55;16.67;;;8.77;;
49826;SDS011;35715;51.570;6.036;2024-01-10T09:54:25;17.40;;;8.05;;
49826;SDS011;35715;51.570;6.036;2024-01-10T09:56:52;12.65;;;7.50;;
49826;SDS011;35715;51.570;6.036;2024-01-10T09:59:24;15.85;;;7.80;;
49826;SDS011;35715;51.570;6.036;2024-01-10T10:01:50;10.88;;;7.20;;
49826;SDS011;35715;51.570;6.036;2024-01-10T10:04:17;12.27;;;6.93;;
49826;SDS011;35715;51.570;6.036;2024-01-10T10:06:44;14.32;;;7.95;;
49826;SDS011;35715;51.570;6.036;2024-01-10T10:09:10;18.08;;;10.90;;
49826;SDS011;35715;51.570;6.036;2024-01-10T10:11:37;15.68;;;8.15;;
49826;SDS011;35715;51.570;6.036;2024-01-10T10:14:15;14.00;;;8.80;;
49826;SDS011;35715;51.570;6.036;2024-01-10T10:16:41;18.80;;;9.75;;
49826;SDS011;35715;51.570;6.036;2024-01-10T10:19:07;15.98;;;10.07;;
49826;SDS011;35715;51.570;6.036;2024-01-10T10:21:34;18.05;;;8.98;;
49826;SDS011;35715;51.570;6.036;2024-01-10T10:24:00;18.80;;;8.65;;
49826;SDS011;35715;51.570;6.036;2024-01-10T10:26:27;15.23;;;10.85;;
49826;SDS011;35715;51.570;6.036;2024-01-10T10:28:54;15.02;;;9.70;;
49826;SDS011;35715;51.570;6.036;2024-01-10T10:31:20;15.63;;;9.52;;
49826;SDS011;35715;51.570;6.036;2024-01-10T10:33:47;15.27;;;10.57;;
49826;SDS011;35715;51.570;6.036;2024-01-10T10:36:14;15.50;;;10.77;;
49826;SDS011;35715;51.570;6.036;2024-01-10T10:38:39;21.80;;;11.60;;
49826;SDS011;35715;51.570;6.036;2024-01-10T10:41:05;19.20;;;10.98;;
49826;SDS011;35715;51.570;6.036;2024-01-10T10:43:38;22.20;;;13.23;;
49826;SDS011;35715;51.570;6.036;2024-01-10T10:46:05;15.82;;;10.68;;
49826;SDS011;35715;51.570;6.036;2024-01-10T10:48:34;13.30;;;9.95;;
49826;SDS011;35715;51.570;6.036;2024-01-10T10:51:03;14.60;;;10.95;;
49826;SDS011;35715;51.570;6.036;2024-01-10T10:53:37;15.65;;;12.23;;
49826;SDS011;35715;51.570;6.036;2024-01-10T10:56:04;17.17;;;12.68;;
49826;SDS011;35715;51.570;6.036;2024-01-10T10:58:36;16.67;;;10.95;;
49826;SDS011;35715;51.570;6.036;2024-01-10T11:01:04;17.23;;;11.13;;
49826;SDS011;35715;51.570;6.036;2024-01-10T11:03:31;15.52;;;10.98;;
49826;SDS011;35715;51.570;6.036;2024-01-10T11:05:59;15.45;;;10.77;;
49826;SDS011;35715;51.570;6.036;2024-01-10T11:08:27;22.63;;;12.68;;
49826;SDS011;35715;51.570;6.036;2024-01-10T11:10:54;18.70;;;12.63;;
49826;SDS011;35715;51.570;6.036;2024-01-10T11:24:36;16.30;;;11.02;;
49826;SDS011;35715;51.570;6.036;2024-01-10T11:27:06;14.65;;;10.98;;
49826;SDS011;35715;51.570;6.036;2024-01-10T11:29:41;15.90;;;12.60;;
49826;SDS011;35715;51.570;6.036;2024-01-10T11:32:07;20.25;;;12.50;;
49826;SDS011;35715;51.570;6.036;2024-01-10T11:34:48;18.20;;;11.45;;
49826;SDS011;35715;51.570;6.036;2024-01-10T11:37:15;17.92;;;12.18;;
49826;SDS011;35715;51.570;6.036;2024-01-10T11:39:43;15.07;;;11.35;;
49826;SDS011;35715;51.570;6.036;2024-01-10T11:42:09;17.73;;;12.35;;
49826;SDS011;35715;51.570;6.036;2024-01-10T11:44:34;17.85;;;13.15;;
49826;SDS011;35715;51.570;6.036;2024-01-10T11:47:11;24.08;;;11.27;;
49826;SDS011;35715;51.570;6.036;2024-01-10T11:49:39;17.27;;;13.10;;
49826;SDS011;35715;51.570;6.036;2024-01-10T11:52:05;17.40;;;12.90;;
49826;SDS011;35715;51.570;6.036;2024-01-10T11:54:35;12.50;;;11.20;;
49826;SDS011;35715;51.570;6.036;2024-01-10T11:57:10;18.38;;;12.27;;
49826;SDS011;35715;51.570;6.036;2024-01-10T11:59:37;18.05;;;13.13;;
49826;SDS011;35715;51.570;6.036;2024-01-10T12:02:06;57.55;;;13.57;;
49826;SDS011;35715;51.570;6.036;2024-01-10T12:04:33;17.30;;;12.27;;
49826;SDS011;35715;51.570;6.036;2024-01-10T12:07:02;17.75;;;11.70;;
49826;SDS011;35715;51.570;6.036;2024-01-10T12:09:29;17.45;;;11.38;;
49826;SDS011;35715;51.570;6.036;2024-01-10T12:11:55;16.00;;;12.38;;
49826;SDS011;35715;51.570;6.036;2024-01-10T12:14:20;15.98;;;11.07;;
49826;SDS011;35715;51.570;6.036;2024-01-10T12:16:46;14.95;;;11.30;;
49826;SDS011;35715;51.570;6.036;2024-01-10T12:19:12;21.42;;;11.75;;
49826;SDS011;35715;51.570;6.036;2024-01-10T12:21:37;21.05;;;14.32;;
49826;SDS011;35715;51.570;6.036;2024-01-10T12:24:05;16.58;;;11.45;;
49826;SDS011;35715;51.570;6.036;2024-01-10T12:26:32;20.85;;;12.52;;
49826;SDS011;35715;51.570;6.036;2024-01-10T12:28:59;17.65;;;13.13;;
49826;SDS011;35715;51.570;6.036;2024-01-10T12:31:28;17.65;;;11.30;;
49826;SDS011;35715;51.570;6.036;2024-01-10T12:33:57;18.83;;;12.23;;
49826;SDS011;35715;51.570;6.036;2024-01-10T12:36:23;16.65;;;11.48;;
49826;SDS011;35715;51.570;6.036;2024-01-10T12:38:53;15.25;;;12.10;;
49826;SDS011;35715;51.570;6.036;2024-01-10T12:41:19;18.58;;;11.38;;
49826;SDS011;35715;51.570;6.036;2024-01-10T12:43:53;17.05;;;11.93;;
49826;SDS011;35715;51.570;6.036;2024-01-10T12:46:20;20.40;;;11.85;;
49826;SDS011;35715;51.570;6.036;2024-01-10T12:48:49;17.65;;;12.68;;
49826;SDS011;35715;51.570;6.036;2024-01-10T12:51:25;15.18;;;11.55;;
49826;SDS011;35715;51.570;6.036;2024-01-10T12:53:51;20.08;;;12.38;;
49826;SDS011;35715;51.570;6.036;2024-01-10T12:56:20;18.98;;;11.90;;
49826;SDS011;35715;51.570;6.036;2024-01-10T12:58:48;18.48;;;11.68;;
49826;SDS011;35715;51.570;6.036;2024-01-10T13:01:14;17.67;;;11.90;;
49826;SDS011;35715;51.570;6.036;2024-01-10T13:03:40;22.30;;;13.10;;
49826;SDS011;35715;51.570;6.036;2024-01-10T13:06:06;18.10;;;13.15;;
49826;SDS011;35715;51.570;6.036;2024-01-10T13:08:34;14.23;;;10.93;;
49826;SDS011;35715;51.570;6.036;2024-01-10T13:10:59;16.45;;;11.48;;
49826;SDS011;35715;51.570;6.036;2024-01-10T13:13:25;20.77;;;12.60;;
49826;SDS011;35715;51.570;6.036;2024-01-10T13:15:51;19.48;;;12.20;;
49826;SDS011;35715;51.570;6.036;2024-01-10T13:18:17;19.00;;;12.10;;
49826;SDS011;35715;51.570;6.036;2024-01-10T13:20:45;18.80;;;13.55;;
49826;SDS011;35715;51.570;6.036;2024-01-10T13:23:12;17.15;;;11.70;;
49826;SDS011;35715;51.570;6.036;2024-01-10T13:25:37;18.10;;;11.13;;
49826;SDS011;35715;51.570;6.036;2024-01-10T13:28:03;15.63;;;10.45;;
49826;SDS011;35715;51.570;6.036;2024-01-10T13:30:29;16.13;;;9.75;;
49826;SDS011;35715;51.570;6.036;2024-01-10T13:32:55;15.55;;;9.88;;
49826;SDS011;35715;51.570;6.036;2024-01-10T13:35:20;16.90;;;10.60;;
49826;SDS011;35715;51.570;6.036;2024-01-10T13:37:47;14.23;;;9.63;;
49826;SDS011;35715;51.570;6.036;2024-01-10T13:40:12;15.88;;;10.50;;
49826;SDS011;35715;51.570;6.036;2024-01-10T13:42:38;16.70;;;10.93;;
49826;SDS011;35715;51.570;6.036;2024-01-10T13:45:07;15.60;;;9.63;;
49826;SDS011;35715;51.570;6.036;2024-01-10T13:47:36;17.95;;;11.25;;
49826;SDS011;35715;51.570;6.036;2024-01-10T13:50:02;14.48;;;8.80;;
49826;SDS011;35715;51.570;6.036;2024-01-10T13:52:28;21.15;;;13.45;;
49826;SDS011;35715;51.570;6.036;2024-01-10T13:54:54;18.45;;;10.90;;
49826;SDS011;35715;51.570;6.036;2024-01-10T13:57:21;19.70;;;11.20;;
49826;SDS011;35715;51.570;6.036;2024-01-10T13:59:46;19.48;;;10.77;;
49826;SDS011;35715;51.570;6.036;2024-01-10T14:02:12;14.55;;;10.23;;
49826;SDS011;35715;51.570;6.036;2024-01-10T14:04:38;17.35;;;10.45;;
49826;SDS011;35715;51.570;6.036;2024-01-10T14:07:04;17.70;;;9.65;;
49826;SDS011;35715;51.570;6.036;2024-01-10T14:09:30;16.15;;;10.70;;
49826;SDS011;35715;51.570;6.036;2024-01-10T14:11:55;16.63;;;10.95;;
49826;SDS011;35715;51.570;6.036;2024-01-10T14:14:21;22.50;;;10.57;;
49826;SDS011;35715;51.570;6.036;2024-01-10T14:16:46;14.30;;;8.60;;
49826;SDS011;35715;51.570;6.036;2024-01-10T14:19:11;15.88;;;9.00;;
49826;SDS011;35715;51.570;6.036;2024-01-10T14:21:37;15.52;;;9.95;;
49826;SDS011;35715;51.570;6.036;2024-01-10T14:24:02;17.63;;;10.95;;
49826;SDS011;35715;51.570;6.036;2024-01-10T14:26:27;15.65;;;10.65;;
49826;SDS011;35715;51.570;6.036;2024-01-10T14:28:53;18.55;;;10.07;;
49826;SDS011;35715;51.570;6.036;2024-01-10T14:31:20;17.15;;;10.50;;
49826;SDS011;35715;51.570;6.036;2024-01-10T14:33:46;20.17;;;10.63;;
49826;SDS011;35715;51.570;6.036;2024-01-10T14:36:12;17.77;;;10.75;;
49826;SDS011;35715;51.570;6.036;2024-01-10T14:38:38;19.63;;;10.77;;
49826;SDS011;35715;51.570;6.036;2024-01-10T14:41:06;18.02;;;10.77;;
49826;SDS011;35715;51.570;6.036;2024-01-10T14:43:32;18.88;;;11.73;;
49826;SDS011;35715;51.570;6.036;2024-01-10T14:45:57;20.02;;;10.70;;